createdAt,value
2019-04-14T00:02:33.640Z,99392.13
2019-04-14T00:05:04.643Z,99391.22
2019-04-14T00:07:34.069Z,99393.25
2019-04-14T00:10:07.375Z,99389.31
2019-04-14T00:12:38.312Z,99393.48
2019-04-14T00:15:23.489Z,99386.25
2019-04-14T00:17:41.812Z,99386.95
2019-04-14T00:20:12.036Z,99386.52
2019-04-14T00:22:42.408Z,99385.24
2019-04-14T00:25:15.143Z,99380.94
2019-04-14T00:27:45.574Z,99385.24
2019-04-14T00:30:14.854Z,99387.33
2019-04-14T00:32:48.790Z,99377.31
2019-04-14T00:35:36.419Z,99383.92
2019-04-14T00:38:32.337Z,99380.88
2019-04-14T00:41:07.274Z,99384.63
2019-04-14T00:43:48.401Z,99374.11
2019-04-14T00:46:21.293Z,99376.98
2019-04-14T00:48:53.812Z,99375.98
2019-04-14T00:51:22.979Z,99373.44
2019-04-14T00:53:52.038Z,99367.11
2019-04-14T00:56:23.382Z,99369.88
2019-04-14T00:58:53.943Z,99365.58
2019-04-14T01:01:24.277Z,99373.94
2019-04-14T01:03:54.732Z,99366.11
2019-04-14T01:06:25.131Z,99367.80
2019-04-14T01:08:55.312Z,99364.48
2019-04-14T01:11:24.891Z,99356.09
2019-04-14T01:13:55.024Z,99356.05
2019-04-14T01:16:27.029Z,99364.28
2019-04-14T01:18:56.449Z,99355.81
2019-04-14T01:21:26.365Z,99357.81
2019-04-14T01:23:56.613Z,99360.67
2019-04-14T01:26:27.056Z,99360.60
2019-04-14T01:28:59.327Z,99363.59
2019-04-14T01:31:29.547Z,99358.81
2019-04-14T01:33:59.798Z,99361.36
2019-04-14T01:36:30.302Z,99360.73
2019-04-14T01:39:00.992Z,99362.05
2019-04-14T01:41:30.327Z,99362.05
2019-04-14T01:44:00.334Z,99356.71
2019-04-14T01:46:34.271Z,99357.20
2019-04-14T01:49:03.331Z,99355.42
2019-04-14T01:51:41.737Z,99358.47
2019-04-14T01:54:28.541Z,99359.39
2019-04-14T01:57:17.634Z,99363.86
2019-04-14T01:59:46.751Z,99360.55
2019-04-14T02:02:18.899Z,99357.97
2019-04-14T02:04:49.109Z,99358.15
2019-04-14T02:07:20.895Z,99358.73
2019-04-14T02:09:51.091Z,99364.27
2019-04-14T02:12:21.319Z,99359.28
2019-04-14T02:14:52.016Z,99361.14
2019-04-14T02:17:22.041Z,99358.75
2019-04-14T02:19:52.385Z,99361.03
2019-04-14T02:22:22.379Z,99364.12
2019-04-14T02:24:52.686Z,99366.06
2019-04-14T02:27:23.062Z,99365.18
2019-04-14T02:29:52.284Z,99362.47
2019-04-14T02:32:49.418Z,99361.47
2019-04-14T02:37:58.558Z,99356.21
2019-04-14T02:43:03.925Z,99356.73
2019-04-14T02:45:29.566Z,99351.47
2019-04-14T02:48:05.680Z,99358.63
2019-04-14T02:53:01.684Z,99353.99
2019-04-14T02:55:21.198Z,99355.57
2019-04-14T03:00:31.787Z,99357.56
2019-04-14T03:02:59.553Z,99352.62
2019-04-14T03:05:26.494Z,99354.41
2019-04-14T03:07:59.876Z,99358.75
2019-04-14T03:10:35.725Z,99361.67
2019-04-14T03:13:05.691Z,99364.78
2019-04-14T03:15:43.551Z,99360.81
2019-04-14T03:21:15.497Z,99365.62
2019-04-14T03:23:57.866Z,99364.22
2019-04-14T03:26:27.144Z,99364.47
2019-04-14T03:28:56.523Z,99363.21
2019-04-14T03:31:53.726Z,99370.34
2019-04-14T03:37:16.185Z,99363.86
2019-04-14T03:41:40.413Z,99358.24
2019-04-14T03:44:03.245Z,99355.51
2019-04-14T03:49:26.265Z,99357.56
2019-04-14T03:51:44.587Z,99362.13
2019-04-14T03:54:03.272Z,99364.59
2019-04-14T03:56:46.793Z,99357.95
2019-04-14T03:59:17.497Z,99360.77
2019-04-14T04:01:47.892Z,99362.86
2019-04-14T04:04:18.242Z,99371.93
2019-04-14T04:06:48.728Z,99370.50
2019-04-14T04:09:19.181Z,99361.20
2019-04-14T04:11:49.734Z,99362.56
2019-04-14T04:14:22.370Z,99367.87
2019-04-14T04:17:08.056Z,99369.36
2019-04-14T04:19:45.228Z,99365.98
2019-04-14T04:22:33.262Z,99365.05
2019-04-14T04:25:13.948Z,99366.44
2019-04-14T04:28:01.595Z,99366.98
2019-04-14T04:30:51.623Z,99367.05
2019-04-14T04:33:43.620Z,99374.83
2019-04-14T04:36:31.099Z,99371.91
2019-04-14T04:39:23.589Z,99376.54
2019-04-14T04:41:53.736Z,99344.23
2019-04-14T04:44:22.859Z,99372.00
2019-04-14T04:46:52.716Z,99377.58
2019-04-14T04:49:26.496Z,99382.05
2019-04-14T04:51:55.043Z,99386.89
2019-04-14T04:54:24.269Z,99384.03
2019-04-14T04:56:53.753Z,99383.69
2019-04-14T04:59:25.558Z,99380.30
2019-04-14T05:01:55.823Z,99377.75
2019-04-14T05:04:25.019Z,99387.58
2019-04-14T05:06:59.294Z,99392.10
2019-04-14T05:09:51.214Z,99389.52
2019-04-14T05:12:48.231Z,99393.64
2019-04-14T05:15:40.323Z,99386.44
2019-04-14T05:18:14.278Z,99390.49
2019-04-14T05:20:48.674Z,99400.22
2019-04-14T05:23:19.003Z,99395.47
2019-04-14T05:25:49.416Z,99391.42
2019-04-14T05:28:20.241Z,99406.16
2019-04-14T05:30:50.392Z,99403.09
2019-04-14T05:33:20.621Z,99409.21
2019-04-14T05:35:50.951Z,99405.16
2019-04-14T05:38:21.963Z,99408.39
2019-04-14T05:40:52.191Z,99409.31
2019-04-14T05:43:32.265Z,99410.49
2019-04-14T05:45:52.325Z,99407.30
2019-04-14T05:48:22.925Z,99410.28
2019-04-14T05:50:53.959Z,99414.09
2019-04-14T05:53:24.077Z,99416.48
2019-04-14T05:55:53.175Z,99420.16
2019-04-14T05:58:23.811Z,99422.63
2019-04-14T06:00:53.930Z,99427.88
2019-04-14T06:03:23.439Z,99428.18
2019-04-14T06:05:52.918Z,99434.87
2019-04-14T06:08:22.295Z,99440.98
2019-04-14T06:10:51.635Z,99439.34
2019-04-14T06:13:20.917Z,99435.78
2019-04-14T06:15:50.817Z,99437.73
2019-04-14T06:18:19.849Z,99432.66
2019-04-14T06:20:48.904Z,99439.78
2019-04-14T06:23:18.158Z,99442.26
2019-04-14T06:25:47.689Z,99434.53
2019-04-14T06:28:17.086Z,99434.92
2019-04-14T06:31:03.596Z,99430.05
2019-04-14T06:33:50.388Z,99420.78
2019-04-14T06:36:37.606Z,99430.62
2019-04-14T06:39:11.197Z,99424.30
2019-04-14T06:41:40.205Z,99424.52
2019-04-14T06:44:09.278Z,99424.38
2019-04-14T06:46:40.036Z,99427.91
2019-04-14T06:49:09.156Z,99430.23
2019-04-14T06:51:38.221Z,99430.59
2019-04-14T06:54:07.520Z,99433.64
2019-04-14T06:56:36.622Z,99426.24
2019-04-14T06:59:05.734Z,99426.49
2019-04-14T07:01:34.832Z,99434.57
2019-04-14T07:04:03.943Z,99430.63
2019-04-14T07:06:32.991Z,99423.04
2019-04-14T07:09:02.240Z,99433.61
2019-04-14T07:11:35.612Z,99436.61
2019-04-14T07:14:04.868Z,99436.67
2019-04-14T07:16:33.909Z,99440.39
2019-04-14T07:19:03.336Z,99445.91
2019-04-14T07:21:32.394Z,99444.38
2019-04-14T07:24:01.458Z,99446.70
2019-04-14T07:26:30.552Z,99445.64
2019-04-14T07:28:59.980Z,99441.37
2019-04-14T07:31:54.020Z,99456.97
2019-04-14T07:34:31.014Z,99447.72
2019-04-14T07:37:25.073Z,99452.37
2019-04-14T07:40:24.218Z,99447.49
2019-04-14T07:43:04.057Z,99453.27
2019-04-14T07:46:01.176Z,99452.14
2019-04-14T07:48:37.675Z,99452.66
2019-04-14T07:51:21.742Z,99452.62
2019-04-14T07:54:06.480Z,99443.78
2019-04-14T07:57:00.652Z,99448.89
2019-04-14T07:59:44.723Z,99454.94
2019-04-14T08:02:41.733Z,99453.16
2019-04-14T08:05:14.091Z,99452.05
2019-04-14T08:07:46.065Z,99450.36
2019-04-14T08:10:15.219Z,99449.05
2019-04-14T08:12:44.349Z,99451.11
2019-04-14T08:15:13.395Z,99458.63
2019-04-14T08:17:44.161Z,99458.15
2019-04-14T08:20:13.256Z,99458.23
2019-04-14T08:22:42.301Z,99454.59
2019-04-14T08:25:11.401Z,99454.88
2019-04-14T08:27:40.480Z,99454.00
2019-04-14T08:30:09.892Z,99456.39
2019-04-14T08:32:38.929Z,99465.09
2019-04-14T08:35:10.395Z,99463.31
2019-04-14T08:37:39.478Z,99455.81
2019-04-14T08:40:08.499Z,99465.95
2019-04-14T08:43:07.836Z,99464.81
2019-04-14T08:45:52.507Z,99455.23
2019-04-14T08:48:52.802Z,99459.30
2019-04-14T08:54:36.410Z,99459.02
2019-04-14T08:57:36.746Z,99460.99
2019-04-14T09:00:16.919Z,99464.27
2019-04-14T09:03:11.815Z,99465.70
2019-04-14T09:05:45.864Z,99473.50
2019-04-14T09:08:19.830Z,99474.56
2019-04-14T09:10:52.014Z,99477.42
2019-04-14T09:13:21.142Z,99479.27
2019-04-14T09:15:52.538Z,99484.59
2019-04-14T09:18:21.585Z,99484.91
2019-04-14T09:20:52.904Z,99480.39
2019-04-14T09:23:22.001Z,99406.50
2019-04-14T09:25:51.070Z,99485.25
2019-04-14T09:28:20.247Z,99488.84
2019-04-14T09:30:49.294Z,99488.00
2019-04-14T09:33:18.577Z,99483.00
2019-04-14T09:35:47.643Z,99480.06
2019-04-14T09:38:16.793Z,99493.30
2019-04-14T09:40:45.814Z,99492.11
2019-04-14T09:43:17.166Z,99490.94
2019-04-14T09:45:46.264Z,99492.17
2019-04-14T09:48:15.347Z,99493.47
2019-04-14T09:50:44.709Z,99504.09
2019-04-14T09:53:13.813Z,99503.83
2019-04-14T09:55:43.204Z,99490.87
2019-04-14T09:58:12.400Z,99499.70
2019-04-14T10:00:41.634Z,99507.45
2019-04-14T10:03:10.845Z,99508.70
2019-04-14T10:05:39.952Z,99504.80
2019-04-14T10:08:09.219Z,99504.35
2019-04-14T10:10:38.325Z,99500.42
2019-04-14T10:13:07.408Z,99507.25
2019-04-14T10:15:36.477Z,99508.55
2019-04-14T10:18:05.544Z,99497.61
2019-04-14T10:20:34.570Z,99500.84
2019-04-14T10:23:03.644Z,99495.70
2019-04-14T10:25:32.662Z,99492.59
2019-04-14T10:28:01.759Z,99498.97
2019-04-14T10:30:30.823Z,99499.69
2019-04-14T10:32:59.915Z,99496.44
2019-04-14T10:35:28.961Z,99499.23
2019-04-14T10:37:58.048Z,99486.05
2019-04-14T10:40:27.110Z,99487.67
2019-04-14T10:42:56.179Z,99488.48
2019-04-14T10:45:25.200Z,99485.03
2019-04-14T10:47:54.273Z,99490.66
2019-04-14T10:50:30.592Z,99488.92
2019-04-14T10:52:54.042Z,99490.09
2019-04-14T10:55:23.671Z,99489.58
2019-04-14T10:57:52.718Z,99484.20
2019-04-14T11:00:21.806Z,99482.07
2019-04-14T11:02:50.852Z,99488.58
2019-04-14T11:05:20.041Z,99485.69
2019-04-14T11:07:49.161Z,99478.17
2019-04-14T11:10:18.203Z,99483.55
2019-04-14T11:12:47.223Z,99477.70
2019-04-14T11:15:16.291Z,99491.37
2019-04-14T11:17:45.333Z,99477.81
2019-04-14T11:20:14.406Z,99488.44
2019-04-14T11:23:04.023Z,99478.66
2019-04-14T11:25:34.141Z,99475.33
2019-04-14T11:28:03.286Z,99485.91
2019-04-14T11:30:35.376Z,99483.37
2019-04-14T11:33:12.281Z,99485.75
2019-04-14T11:35:59.124Z,99480.89
2019-04-14T11:38:36.104Z,99479.16
2019-04-14T11:41:08.909Z,99480.75
2019-04-14T11:43:38.032Z,99489.97
2019-04-14T11:46:07.421Z,99484.58
2019-04-14T11:48:37.484Z,99489.62
2019-04-14T11:51:06.512Z,99482.91
2019-04-14T11:53:36.139Z,99481.57
2019-04-14T11:56:05.223Z,99480.16
2019-04-14T11:58:34.242Z,99480.09
2019-04-14T12:01:28.219Z,99479.36
2019-04-14T12:04:15.299Z,99476.66
2019-04-14T12:07:12.212Z,99478.56
2019-04-14T12:09:48.594Z,99476.48
2019-04-14T12:12:17.612Z,99475.55
2019-04-14T12:14:46.792Z,99482.41
2019-04-14T12:17:15.923Z,99492.73
2019-04-14T12:19:45.002Z,99484.77
2019-04-14T12:22:14.020Z,99493.45
2019-04-14T12:24:46.592Z,99501.02
2019-04-14T12:27:15.733Z,99491.97
2019-04-14T12:29:45.781Z,99493.18
2019-04-14T12:32:17.243Z,99483.31
2019-04-14T12:34:49.862Z,99483.56
2019-04-14T12:37:18.975Z,99486.59
2019-04-14T12:39:48.070Z,99486.98
2019-04-14T12:42:37.349Z,99483.64
2019-04-14T12:45:32.640Z,99482.03
2019-04-14T12:48:23.738Z,99490.49
2019-04-14T12:50:56.471Z,99482.72
2019-04-14T12:53:25.598Z,99477.72
2019-04-14T12:55:54.752Z,99471.30
2019-04-14T12:58:32.836Z,99473.70
2019-04-14T13:01:07.720Z,99476.21
2019-04-14T13:03:38.586Z,99489.75
2019-04-14T13:06:07.772Z,99486.96
2019-04-14T13:08:37.412Z,99496.56
2019-04-14T13:11:07.790Z,99497.73
2019-04-14T13:13:36.843Z,99483.09
2019-04-14T13:16:07.121Z,99493.95
2019-04-14T13:18:36.200Z,99489.06
2019-04-14T13:21:05.482Z,99484.89
2019-04-14T13:23:34.526Z,99483.39
2019-04-14T13:26:03.579Z,99478.74
2019-04-14T13:28:32.625Z,99479.43
2019-04-14T13:31:01.774Z,99480.01
2019-04-14T13:33:30.758Z,99481.52
2019-04-14T13:35:59.927Z,99482.80
2019-04-14T13:38:29.057Z,99483.63
2019-04-14T13:40:58.119Z,99478.62
2019-04-14T13:43:27.185Z,99487.08
2019-04-14T13:45:56.333Z,99477.27
2019-04-14T13:48:25.539Z,99481.59
2019-04-14T13:50:54.716Z,99471.92
2019-04-14T13:53:23.853Z,99482.45
2019-04-14T13:55:52.903Z,99484.69
2019-04-14T13:58:23.847Z,99486.42
2019-04-14T14:00:53.031Z,99493.27
2019-04-14T14:03:22.402Z,99476.29
2019-04-14T14:05:52.180Z,99464.83
2019-04-14T14:08:21.219Z,99475.84
2019-04-14T14:10:54.726Z,99477.09
2019-04-14T14:13:51.767Z,99469.87
2019-04-14T14:16:47.886Z,99466.33
2019-04-14T14:19:42.308Z,99458.64
2019-04-14T14:22:27.148Z,99464.28
2019-04-14T14:25:02.292Z,99451.56
2019-04-14T14:27:32.912Z,99454.64
2019-04-14T14:30:02.114Z,99453.08
2019-04-14T14:32:33.922Z,99451.22
2019-04-14T14:35:03.183Z,99460.59
2019-04-14T14:37:32.532Z,99439.52
2019-04-14T14:40:01.596Z,99446.48
2019-04-14T14:42:30.967Z,99447.23
2019-04-14T14:45:34.226Z,99443.77
2019-04-14T14:48:33.700Z,99448.18
2019-04-14T14:51:10.817Z,99444.67
2019-04-14T14:53:39.981Z,99449.93
2019-04-14T14:56:09.109Z,99447.19
2019-04-14T14:58:38.616Z,99445.72
2019-04-14T15:01:08.323Z,99446.47
2019-04-14T15:03:37.371Z,99444.76
2019-04-14T15:06:06.498Z,99446.89
2019-04-14T15:08:35.560Z,99445.45
2019-04-14T15:11:04.811Z,99447.44
2019-04-14T15:13:33.906Z,99452.17
2019-04-14T15:16:03.105Z,99443.84
2019-04-14T15:18:32.096Z,99439.13
2019-04-14T15:21:01.139Z,99451.77
2019-04-14T15:23:30.310Z,99452.36
2019-04-14T15:25:59.324Z,99454.22
2019-04-14T15:28:28.513Z,99456.91
2019-04-14T15:30:57.586Z,99454.03
2019-04-14T15:33:26.663Z,99450.58
2019-04-14T15:35:55.796Z,99462.70
2019-04-14T15:38:24.904Z,99442.67
2019-04-14T15:40:53.970Z,99444.89
2019-04-14T15:43:23.109Z,99441.78
2019-04-14T15:45:54.447Z,99443.78
2019-04-14T15:48:26.255Z,99448.78
2019-04-14T15:50:57.082Z,99443.05
2019-04-14T15:53:37.697Z,99452.08
2019-04-14T15:56:02.200Z,99449.61
2019-04-14T15:58:50.988Z,99460.91
2019-04-14T16:01:51.224Z,99459.55
2019-04-14T16:04:27.931Z,99456.23
2019-04-14T16:07:31.477Z,99458.98
2019-04-14T16:10:31.303Z,99455.33
2019-04-14T16:13:07.962Z,99472.14
2019-04-14T16:16:04.872Z,99466.85
2019-04-14T16:18:58.987Z,99476.07
2019-04-14T16:21:28.115Z,99485.66
2019-04-14T16:23:57.270Z,99489.43
2019-04-14T16:26:34.500Z,99487.56
2019-04-14T16:29:21.787Z,99480.34
2019-04-14T16:32:24.929Z,99487.80
2019-04-14T16:34:57.574Z,99495.33
2019-04-14T16:37:27.141Z,99508.50
2019-04-14T16:39:56.454Z,99503.48
2019-04-14T16:42:25.629Z,99506.84
2019-04-14T16:44:54.677Z,99508.47
2019-04-14T16:47:23.822Z,99510.50
2019-04-14T16:49:53.317Z,99512.41
2019-04-14T16:52:30.462Z,99514.31
2019-04-14T16:55:06.961Z,99520.67
2019-04-14T16:57:54.024Z,99531.51
2019-04-14T17:00:28.763Z,99529.44
2019-04-14T17:02:57.858Z,99535.57
2019-04-14T17:05:26.897Z,99538.47
2019-04-14T17:07:55.961Z,99536.95
2019-04-14T17:10:26.149Z,99541.06
2019-04-14T17:12:55.363Z,99538.91
2019-04-14T17:15:49.745Z,99543.77
2019-04-14T17:18:48.665Z,99541.19
2019-04-14T17:21:35.047Z,99539.86
2019-04-14T17:24:21.915Z,99556.25
2019-04-14T17:27:08.010Z,99547.97
2019-04-14T17:29:59.059Z,99557.63
2019-04-14T17:32:42.380Z,99559.29
2019-04-14T17:35:35.042Z,99571.25
2019-04-14T17:38:11.043Z,99574.98
2019-04-14T17:40:49.642Z,99563.74
2019-04-14T17:43:32.051Z,99568.70
2019-04-14T17:46:19.819Z,99577.16
2019-04-14T17:49:13.956Z,99573.34
2019-04-14T17:51:48.437Z,99578.88
2019-04-14T17:54:29.935Z,99579.48
2019-04-14T17:57:18.310Z,99580.58
2019-04-14T18:00:04.397Z,99581.30
2019-04-14T18:03:04.730Z,99586.12
2019-04-14T18:05:46.231Z,99586.50
2019-04-14T18:08:26.935Z,99594.31
2019-04-14T18:11:02.164Z,99595.88
2019-04-14T18:13:37.319Z,99600.45
2019-04-14T18:16:27.812Z,99606.94
2019-04-14T18:19:29.234Z,99599.13
2019-04-14T18:21:58.420Z,99602.81
2019-04-14T18:24:27.599Z,99616.95
2019-04-14T18:26:56.673Z,99604.47
2019-04-14T18:29:53.999Z,99616.09
2019-04-14T18:32:30.954Z,99612.33
2019-04-14T18:35:17.833Z,99623.97
2019-04-14T18:38:14.900Z,99621.02
2019-04-14T18:41:02.918Z,99631.94
2019-04-14T18:43:57.162Z,99637.72
2019-04-14T18:46:37.070Z,99638.94
2019-04-14T18:49:31.289Z,99654.30
2019-04-14T18:52:28.177Z,99657.37
2019-04-14T18:55:25.817Z,99667.81
2019-04-14T18:58:13.079Z,99672.59
2019-04-14T19:00:54.308Z,99671.70
2019-04-14T19:03:24.207Z,99675.48
2019-04-14T19:06:08.493Z,99687.06
2019-04-14T19:08:39.292Z,99690.63
2019-04-14T19:11:41.985Z,99693.67
2019-04-14T19:14:13.532Z,99687.66
2019-04-14T19:16:45.921Z,99692.84
2019-04-14T19:19:15.839Z,99697.60
2019-04-14T19:21:44.896Z,99702.45
2019-04-14T19:24:15.290Z,99701.34
2019-04-14T19:26:44.456Z,99715.81
2019-04-14T19:29:13.554Z,99718.36
2019-04-14T19:31:42.677Z,99719.36
2019-04-14T19:34:14.053Z,99728.24
2019-04-14T19:36:43.287Z,99735.31
2019-04-14T19:39:12.425Z,99740.55
2019-04-14T19:41:41.470Z,99741.09
2019-04-14T19:44:11.229Z,99745.34
2019-04-14T19:46:42.888Z,99755.15
2019-04-14T19:49:12.073Z,99748.33
2019-04-14T19:51:41.410Z,99743.94
2019-04-14T19:54:10.781Z,99750.84
2019-04-14T19:56:42.165Z,99752.59
2019-04-14T19:59:11.328Z,99760.64
2019-04-14T20:01:40.774Z,99755.17
2019-04-14T20:04:10.374Z,99759.47
2019-04-14T20:06:39.476Z,99770.74
2019-04-14T20:09:10.778Z,99767.02
2019-04-14T20:11:40.027Z,99770.30
2019-04-14T20:14:09.166Z,99772.30
2019-04-14T20:17:02.581Z,99780.06
2019-04-14T20:19:51.268Z,99784.93
2019-04-14T20:22:31.443Z,99785.16
2019-04-14T20:25:19.312Z,99789.44
2019-04-14T20:27:53.336Z,99791.75
2019-04-14T20:30:41.301Z,99789.37
2019-04-14T20:33:14.418Z,99790.58
2019-04-14T20:35:43.486Z,99796.97
2019-04-14T20:38:13.186Z,99793.55
2019-04-14T20:40:45.889Z,99800.84
2019-04-14T20:43:17.662Z,99795.91
2019-04-14T20:45:47.439Z,99793.55
2019-04-14T20:48:19.059Z,99794.86
2019-04-14T20:50:49.376Z,99800.20
2019-04-14T20:53:18.479Z,99800.78
2019-04-14T20:55:47.894Z,99805.03
2019-04-14T20:58:16.988Z,99800.86
2019-04-14T21:00:46.129Z,99802.22
2019-04-14T21:03:26.734Z,99805.72
2019-04-14T21:06:05.705Z,99799.08
2019-04-14T21:08:52.578Z,99800.38
2019-04-14T21:11:27.991Z,99794.89
2019-04-14T21:14:12.852Z,99792.64
2019-04-14T21:16:43.940Z,99787.99
2019-04-14T21:19:26.674Z,99790.00
2019-04-14T21:22:24.004Z,99782.91
2019-04-14T21:24:59.416Z,99782.31
2019-04-14T21:27:53.218Z,99790.53
2019-04-14T21:30:34.355Z,99791.06
2019-04-14T21:33:15.604Z,99797.37
2019-04-14T21:35:54.826Z,99795.37
2019-04-14T21:38:48.941Z,99796.34
2019-04-14T21:41:23.992Z,99797.08
2019-04-14T21:43:53.092Z,99792.44
2019-04-14T21:46:22.108Z,99795.70
2019-04-14T21:48:51.197Z,99800.14
2019-04-14T21:51:24.350Z,99812.90
2019-04-14T21:53:55.000Z,99805.02
2019-04-14T21:56:25.684Z,99808.02
2019-04-14T21:59:13.516Z,99817.16
2019-04-14T22:02:00.362Z,99813.81
2019-04-14T22:05:06.826Z,99812.44
2019-04-14T22:08:03.862Z,99813.61
2019-04-14T22:10:37.238Z,99798.24
2019-04-14T22:13:06.325Z,99798.86
2019-04-14T22:15:35.371Z,99801.48
2019-04-14T22:18:06.277Z,99803.69
2019-04-14T22:20:35.524Z,99821.86
2019-04-14T22:23:06.503Z,99827.56
2019-04-14T22:25:37.986Z,99830.06
2019-04-14T22:28:07.380Z,99827.37
2019-04-14T22:30:36.526Z,99833.06
2019-04-14T22:33:07.813Z,99831.30
2019-04-14T22:35:36.865Z,99829.41
2019-04-14T22:38:06.058Z,99829.42
2019-04-14T22:40:36.656Z,99834.81
2019-04-14T22:43:05.750Z,99831.99
2019-04-14T22:45:34.926Z,99836.31
2019-04-14T22:48:04.286Z,99844.78
2019-04-14T22:50:33.373Z,99839.61
2019-04-14T22:53:02.417Z,99835.56
2019-04-14T22:55:33.539Z,99830.53
2019-04-14T22:58:02.572Z,99832.84
2019-04-14T23:00:42.127Z,99840.11
2019-04-14T23:03:42.524Z,99840.34
2019-04-14T23:06:35.892Z,99834.02
2019-04-14T23:09:24.319Z,99836.39
2019-04-14T23:12:27.351Z,99841.09
2019-04-14T23:15:21.207Z,99840.13
2019-04-14T23:18:04.998Z,99835.97
2019-04-14T23:20:53.686Z,99844.70
2019-04-14T23:23:54.007Z,99839.04
2019-04-14T23:26:23.085Z,99834.88
2019-04-14T23:28:54.425Z,99838.02
2019-04-14T23:31:23.469Z,99835.81
2019-04-14T23:33:52.515Z,99835.49
2019-04-14T23:36:21.590Z,99842.50
2019-04-14T23:38:50.651Z,99833.09
2019-04-14T23:41:19.723Z,99830.98
2019-04-14T23:43:50.803Z,99828.69
2019-04-14T23:46:19.906Z,99834.09
2019-04-14T23:48:48.911Z,99836.17
2019-04-14T23:51:18.020Z,99842.31
2019-04-14T23:53:47.088Z,99841.70
2019-04-14T23:56:18.173Z,99846.05
2019-04-14T23:58:47.237Z,99837.76
